METAR Data
IDs: Format: Raw Decoded Include TAF

Data at: 1704 UTC 04 Aug 2021

EDFH 041650Z VRB01KT 9999 FEW055CB 18/12 Q1013